Latest Coastal Weather Observations for Cato Island

IDQ60701

Issued at 4:13 pm EST Wednesday 17 April 2024 (issued every 10 minutes, with the page automatically refreshed every 10 minutes)

About coastal observations | Map of coastal stations | Coastal observations for QLD | Marine services | Other Formats
Station Details ID: 200601 Name: CATO ISLAND Lat: -23.25 Lon: 155.54 Height: 6.3 m
Data from the previous 72 hours. | See also: Recent months for locations in Queensland
Date/Time
EST
Wind Sea
Height
m
Swell Vis
km
Cloud Weather Temp
°C
Press
MSL
hPa
Rain since
9am
mm
Dir  Spd
kts
Gust
kts
Height
m
Period
s
Dir
17/04:00pm E 15 17 - - - - - - - 26.0 1016.2 -
17/03:30pm E 17 19 - - - - - - - 25.5 1016.0 -
17/03:00pm E 19 23 - - - - - - - 25.6 1015.9 -
17/02:30pm ESE 16 18 - - - - - - - 26.1 1016.0 -
17/02:00pm ESE 16 18 - - - - - - - 26.2 1016.2 -
17/01:30pm ESE 16 18 - - - - - - - 26.4 1016.3 -
17/01:00pm ESE 16 18 - - - - - - - 26.5 1016.6 -
17/12:30pm ESE 16 19 - - - - - - - 26.5 1016.9 -
17/12:00pm ESE 18 20 - - - - - - - 26.3 1017.2 -
17/11:30am E 17 19 - - - - - - - 26.4 1017.7 -
17/11:00am E 17 19 - - - - - - - 26.4 1018.1 -
17/10:30am E 17 20 - - - - - - - 26.3 1018.4 -
17/10:00am ESE 17 19 - - - - - - - 26.3 1018.7 -
17/09:30am E 17 19 - - - - - - - 26.2 1019.0 -
17/09:00am E 15 18 - - - - - - - 26.1 1019.2 -
17/08:30am ESE 15 18 - - - - - - - 25.5 1019.1 -
17/08:00am ESE 19 21 - - - - - - - 25.8 1018.9 -
17/07:30am E 16 17 - - - - - - - 25.7 1018.6 -
17/07:00am ESE 18 23 - - - - - - - 24.9 1018.5 -
17/06:30am ESE 17 19 - - - - - - - 25.7 1018.3 -
17/06:00am ESE 16 18 - - - - - - - 25.8 1018.2 -
17/05:30am ESE 16 20 - - - - - - - 25.6 1018.0 -
17/05:00am ESE 16 19 - - - - - - - 25.7 1017.9 -
17/04:30am ESE 17 19 - - - - - - - 25.6 1018.0 -
17/04:00am ESE 17 20 - - - - - - - 25.6 1017.9 -
17/03:30am ESE 15 17 - - - - - - - 25.7 1017.9 -
17/03:00am ESE 16 19 - - - - - - - 25.6 1018.0 -
17/02:30am ESE 17 20 - - - - - - - 25.6 1017.8 -
17/02:00am E 17 20 - - - - - - - 25.5 1018.1 -
17/01:30am E 18 22 - - - - - - - 25.6 1018.3 -
17/01:00am ESE 16 19 - - - - - - - 25.5 1018.6 -
17/12:30am ESE 15 18 - - - - - - - 25.5 1018.9 -
17/12:00am ESE 17 19 - - - - - - - 25.6 1019.2 -
 
Date/Time
EST
Wind Sea
Height
m
Swell Vis
km
Cloud Weather Temp
°C
Press
MSL
hPa
Rain since
9am
mm
Dir  Spd
kts
Gust
kts
Height
m
Period
s
Dir
16/11:30pm ESE 17 21 - - - - - - - 25.8 1019.4 -
16/11:00pm E 19 21 - - - - - - - 25.6 1019.4 -
16/10:30pm ESE 21 23 - - - - - - - 25.7 1019.5 -
16/10:00pm E 19 22 - - - - - - - 25.6 1019.5 -
16/09:30pm ESE 20 23 - - - - - - - 25.7 1019.6 -
16/09:00pm ESE 20 23 - - - - - - - 25.7 1019.7 -
16/08:30pm ESE 19 21 - - - - - - - 25.8 1019.5 -
16/08:00pm ESE 19 21 - - - - - - - 25.8 1019.4 -
16/07:30pm ESE 18 22 - - - - - - - 25.9 1019.4 -
16/07:00pm ESE 19 22 - - - - - - - 25.7 1019.0 -
16/06:30pm E 18 21 - - - - - - - 25.7 1018.8 -
16/06:00pm ESE 18 21 - - - - - - - 25.7 1018.6 -
16/05:30pm E 19 21 - - - - - - - 25.7 1018.5 -
16/05:00pm ESE 19 21 - - - - - - - 25.9 1018.1 -
16/04:30pm ESE 19 22 - - - - - - - 25.9 1018.0 -
16/04:00pm ESE 19 22 - - - - - - - 25.9 1017.9 -
16/03:30pm E 15 19 - - - - - - - 26.1 1017.7 -
16/03:00pm E 16 18 - - - - - - - 26.1 1017.7 -
16/02:30pm E 17 20 - - - - - - - 26.1 1017.7 -
16/02:00pm E 18 21 - - - - - - - 26.1 1017.8 -
16/01:30pm E 17 19 - - - - - - - 26.2 1018.0 -
16/01:00pm E 18 20 - - - - - - - 26.4 1018.2 -
16/12:30pm E 18 21 - - - - - - - 26.4 1018.5 -
16/12:00pm E 18 21 - - - - - - - 26.6 1018.8 -
16/11:30am E 19 22 - - - - - - - 26.3 1019.4 -
16/11:00am E 19 22 - - - - - - - 26.3 1019.9 -
16/10:30am E 19 23 - - - - - - - 26.6 1020.5 -
16/10:00am E 18 20 - - - - - - - 26.7 1020.7 -
16/09:30am ENE 19 22 - - - - - - - 26.3 1020.8 -
16/09:00am E 18 21 - - - - - - - 26.3 1021.0 -
16/08:30am ENE 18 21 - - - - - - - 26.4 1020.8 -
16/08:00am ENE 19 24 - - - - - - - 25.5 1020.8 -
16/07:30am ENE 18 21 - - - - - - - 25.6 1020.6 -
16/07:00am ENE 17 21 - - - - - - - 25.7 1020.5 -
16/06:30am E 19 25 - - - - - - - 25.6 1020.2 -
16/06:00am E 23 28 - - - - - - - 24.0 1019.9 -
16/05:49am E 21 28 - - - - - - - 24.7 1019.7 -
16/05:30am ENE 14 18 - - - - - - - 25.3 1019.5 -
16/05:05am ENE 17 27 - - - - - - - 25.1 1019.3 -
16/05:00am ENE 16 21 - - - - - - - 25.6 1019.3 -
16/04:30am ENE 17 24 - - - - - - - 24.9 1019.2 -
16/04:12am E 19 30 - - - - - - - 25.2 1019.0 -
16/04:00am E 18 21 - - - - - - - 25.5 1019.0 -
16/03:30am E 17 20 - - - - - - - 25.5 1019.0 -
16/03:00am ENE 18 21 - - - - - - - 25.6 1019.1 -
16/02:30am ENE 20 23 - - - - - - - 25.4 1019.1 -
16/02:00am ENE 19 23 - - - - - - - 25.5 1019.1 -
16/01:30am E 19 22 - - - - - - - 25.0 1019.3 -
16/01:00am ENE 17 20 - - - - - - - 25.6 1019.5 -
16/12:30am E 17 20 - - - - - - - 25.6 1019.7 -
16/12:00am E 16 18 - - - - - - - 25.4 1020.0 -
 
Date/Time
EST
Wind Sea
Height
m
Swell Vis
km
Cloud Weather Temp
°C
Press
MSL
hPa
Rain since
9am
mm
Dir  Spd
kts
Gust
kts
Height
m
Period
s
Dir
15/11:30pm E 11 14 - - - - - - - 25.3 1020.4 -
15/11:00pm E 15 17 - - - - - - - 25.0 1020.7 -
15/10:41pm E 17 22 - - - - - - - 25.0 1020.8 -
15/10:30pm ESE 16 18 - - - - - - - 25.4 1020.8 -
15/10:00pm ESE 17 20 - - - - - - - 25.5 1021.0 -
15/09:30pm ESE 17 20 - - - - - - - 25.5 1021.0 -
15/09:00pm ESE 18 21 - - - - - - - 25.4 1021.0 -
15/08:30pm ESE 19 22 - - - - - - - 25.5 1020.9 -
15/08:00pm ESE 19 22 - - - - - - - 25.6 1020.7 -
15/07:30pm ESE 18 22 - - - - - - - 25.8 1020.7 -
15/07:00pm ESE 18 21 - - - - - - - 25.7 1020.5 -
15/06:30pm ESE 18 23 - - - - - - - 25.7 1020.3 -
15/06:00pm ESE 19 21 - - - - - - - 25.8 1020.1 -
15/05:30pm ESE 19 22 - - - - - - - 25.7 1019.9 -
15/05:00pm ESE 19 23 - - - - - - - 25.9 1019.6 -
15/04:30pm ESE 19 22 - - - - - - - 26.0 1019.4 -
15/04:00pm ESE 20 22 - - - - - - - 25.9 1019.3 -
15/03:30pm ESE 19 22 - - - - - - - 25.9 1019.2 -
15/03:00pm ESE 17 20 - - - - - - - 26.2 1019.3 -
15/02:30pm ESE 19 21 - - - - - - - 26.0 1019.3 -
15/02:00pm ESE 18 21 - - - - - - - 26.1 1019.3 -
15/01:30pm ESE 17 22 - - - - - - - 26.0 1019.4 -
15/01:00pm ESE 19 21 - - - - - - - 25.8 1019.5 -
15/12:30pm ESE 18 21 - - - - - - - 26.0 1019.7 -
15/12:00pm ESE 17 21 - - - - - - - 26.2 1020.1 -
15/11:30am ESE 18 20 - - - - - - - 26.2 1020.2 -
15/11:00am E 17 21 - - - - - - - 26.1 1020.7 -
15/10:30am E 18 21 - - - - - - - 26.0 1021.1 -
15/10:00am E 17 20 - - - - - - - 26.0 1021.4 -
15/09:30am E 18 21 - - - - - - - 25.9 1021.6 -
15/09:00am E 18 21 - - - - - - - 25.8 1021.7 -
15/08:30am ESE 17 20 - - - - - - - 25.7 1021.6 -
15/08:00am ESE 17 21 - - - - - - - 25.6 1021.3 -
15/07:30am ESE 19 21 - - - - - - - 25.6 1021.0 -
15/07:00am ESE 17 20 - - - - - - - 25.6 1020.7 -
15/06:30am ESE 18 20 - - - - - - - 25.4 1020.4 -
15/06:00am E 17 20 - - - - - - - 25.3 1020.1 -
15/05:30am E 16 19 - - - - - - - 25.4 1020.0 -
15/05:00am ESE 16 20 - - - - - - - 25.3 1019.6 -
15/04:30am E 16 18 - - - - - - - 25.2 1019.4 -
15/04:00am E 16 19 - - - - - - - 25.3 1019.4 -
15/03:30am ESE 17 19 - - - - - - - 25.3 1019.5 -
15/03:00am E 17 21 - - - - - - - 25.3 1019.7 -
15/02:30am ESE 17 19 - - - - - - - 25.4 1019.8 -
15/02:00am E 17 20 - - - - - - - 25.3 1020.1 -
15/01:30am E 17 21 - - - - - - - 25.5 1020.3 -
15/01:00am E 19 21 - - - - - - - 25.6 1020.5 -
15/12:30am E 19 22 - - - - - - - 25.6 1020.8 -
15/12:00am E 19 22 - - - - - - - 25.5 1021.2 -
 
Date/Time
EST
Wind Sea
Height
m
Swell Vis
km
Cloud Weather Temp
°C
Press
MSL
hPa
Rain since
9am
mm
Dir  Spd
kts
Gust
kts
Height
m
Period
s
Dir
14/11:30pm E 18 21 - - - - - - - 25.5 1021.2 -
14/11:00pm E 19 22 - - - - - - - 25.5 1021.5 -
14/10:30pm E 19 23 - - - - - - - 25.6 1021.4 -
14/10:00pm E 21 24 - - - - - - - 25.6 1021.4 -
14/09:30pm E 21 25 - - - - - - - 25.6 1021.4 -
14/09:00pm E 22 26 - - - - - - - 25.6 1021.3 -
14/08:30pm E 22 25 - - - - - - - 25.6 1021.0 -
14/08:00pm ESE 21 25 - - - - - - - 25.6 1020.9 -
14/07:36pm SE 13 22 - - - - - - - 25.4 1020.7 -
14/07:30pm SE 11 14 - - - - - - - 24.2 1020.7 -
14/07:00pm E 17 23 - - - - - - - 24.0 1020.4 -
14/06:30pm ESE 21 25 - - - - - - - 24.5 1019.9 -
14/06:00pm ESE 22 25 - - - - - - - 24.4 1019.7 -
14/05:30pm SE 17 23 - - - - - - - 23.9 1019.6 -
14/05:00pm ENE 12 21 - - - - - - - 24.1 1019.5 -
14/04:30pm ENE 9 16 - - - - - - - 21.5 1019.7 -

Other formats

Comma delimited format used in spreadsheet applications
http://www.bom.gov.au/fwo/IDQ60701/IDQ60701.94394.axf

JavaScript Object Notation format (JSON) in row-major order
http://www.bom.gov.au/fwo/IDQ60701/IDQ60701.94394.json

Data quality

Most of these data are generated automatically and are frequently updated. Quality checks on data are not normally performed. It is possible for incorrect values to appear. Refer to information at About Latest Weather Observations and please check the disclaimer before using these data.